Time;durP1;ratioP1;P1;durP2;ratioP2;P2;SDS_P1;SDS_P2;PMS_P1;PMS_P2;Temp;Humidity;BMP_temperature;BMP_pressure;BME280_temperature;BME280_humidity;BME280_pressure;Samples;Min_cycle;Max_cycle;Signal;HPM_P1;HPM_P2
2022/01/10 00:01:41;;;;;;;0.20;0.20;;;;;;;;;;5134945;27;20283;-73
2022/01/10 00:04:07;;;;;;;0.13;0.13;;;;;;;;;;5135373;27;20242;-73
2022/01/10 00:06:35;;;;;;;0.20;0.20;;;;;;;;;;5133847;27;20197;-73
2022/01/10 00:09:02;;;;;;;0.20;0.20;;;;;;;;;;5129111;27;20536;-73
2022/01/10 00:11:30;;;;;;;0.10;0.10;;;;;;;;;;5135163;27;20192;-73
2022/01/10 00:13:57;;;;;;;0.20;0.20;;;;;;;;;;5126604;27;20261;-74
2022/01/10 00:16:23;;;;;;;0.20;0.20;;;;;;;;;;5139630;27;20249;-73
2022/01/10 00:18:49;;;;;;;0.10;0.10;;;;;;;;;;5126178;27;20242;-73
2022/01/10 00:21:16;;;;;;;0.13;0.13;;;;;;;;;;5138171;27;20236;-73
2022/01/10 00:23:44;;;;;;;0.20;0.20;;;;;;;;;;5129184;27;20429;-73
2022/01/10 00:26:11;;;;;;;0.20;0.20;;;;;;;;;;5125060;27;20201;-72
2022/01/10 00:28:37;;;;;;;0.10;0.10;;;;;;;;;;5140623;27;20241;-74
2022/01/10 00:31:03;;;;;;;0.20;0.20;;;;;;;;;;5124510;27;20215;-74
2022/01/10 00:33:29;;;;;;;0.20;0.20;;;;;;;;;;5139509;27;20428;-73
2022/01/10 00:35:56;;;;;;;0.10;0.10;;;;;;;;;;5139609;27;20263;-73
2022/01/10 00:38:22;;;;;;;0.20;0.20;;;;;;;;;;5134051;27;20202;-73
2022/01/10 00:40:50;;;;;;;0.10;0.10;;;;;;;;;;5128527;27;20394;-74
2022/01/10 00:43:19;;;;;;;0.20;0.20;;;;;;;;;;5129180;27;20306;-73
2022/01/10 00:45:46;;;;;;;0.20;0.20;;;;;;;;;;5141041;27;20215;-73
2022/01/10 00:48:12;;;;;;;0.20;0.20;;;;;;;;;;5140281;27;20196;-75
2022/01/10 00:50:38;;;;;;;0.20;0.20;;;;;;;;;;5132605;27;20537;-72
2022/01/10 00:53:05;;;;;;;0.20;0.20;;;;;;;;;;5144321;27;20270;-74
2022/01/10 00:55:31;;;;;;;0.10;0.10;;;;;;;;;;5144480;27;20428;-73
2022/01/10 00:57:58;;;;;;;0.10;0.10;;;;;;;;;;5144096;27;20203;-73
2022/01/10 01:00:25;;;;;;;0.10;0.10;;;;;;;;;;5144416;27;20197;-73
2022/01/10 01:02:51;;;;;;;0.20;0.20;;;;;;;;;;5144226;27;20203;-73
2022/01/10 01:05:19;;;;;;;0.10;0.10;;;;;;;;;;5144360;27;20205;-73
2022/01/10 01:07:46;;;;;;;0.20;0.20;;;;;;;;;;5144194;27;20208;-73
2022/01/10 01:10:43;;;;;;;0.10;0.10;;;;;;;;;;5143914;27;20221;-72
2022/01/10 01:13:24;;;;;;;0.10;0.10;;;;;;;;;;5144190;28;20228;-73
2022/01/10 01:16:08;;;;;;;0.20;0.20;;;;;;;;;;5143809;27;20248;-72
2022/01/10 01:19:02;;;;;;;0.10;0.10;;;;;;;;;;5144337;27;20261;-71
2022/01/10 01:24:13;;;;;;;0.10;0.10;;;;;;;;;;5144025;28;20393;-73
2022/01/10 01:26:41;;;;;;;0.10;0.10;;;;;;;;;;5124196;27;20274;-73
2022/01/10 01:29:10;;;;;;;0.20;0.20;;;;;;;;;;5121989;28;20200;-73
2022/01/10 01:31:37;;;;;;;0.10;0.10;;;;;;;;;;5123525;28;20210;-73
2022/01/10 01:34:03;;;;;;;0.13;0.13;;;;;;;;;;5123529;28;20450;-73
2022/01/10 01:36:31;;;;;;;0.20;0.20;;;;;;;;;;5123629;28;20205;-73
2022/01/10 01:38:58;;;;;;;0.20;0.20;;;;;;;;;;5144057;27;20258;-73
2022/01/10 01:41:35;;;;;;;0.10;0.10;;;;;;;;;;5143486;27;20199;-73
2022/01/10 01:44:03;;;;;;;0.17;0.17;;;;;;;;;;5144115;27;20398;-73
2022/01/10 01:46:33;;;;;;;0.10;0.10;;;;;;;;;;5143540;27;20251;-73
2022/01/10 01:48:59;;;;;;;0.20;0.20;;;;;;;;;;5143745;27;20205;-73
2022/01/10 01:51:25;;;;;;;0.13;0.13;;;;;;;;;;5143543;27;20229;-73
2022/01/10 01:53:52;;;;;;;0.20;0.20;;;;;;;;;;5143671;27;20241;-73
2022/01/10 01:56:19;;;;;;;0.20;0.20;;;;;;;;;;5143917;27;20276;-73
2022/01/10 01:58:46;;;;;;;0.20;0.20;;;;;;;;;;5143455;27;20225;-72
2022/01/10 02:01:16;;;;;;;0.20;0.20;;;;;;;;;;5143773;27;20264;-73
2022/01/10 02:03:44;;;;;;;0.10;0.10;;;;;;;;;;5143487;27;20234;-72
2022/01/10 02:06:10;;;;;;;0.20;0.20;;;;;;;;;;5143679;27;20391;-72
2022/01/10 02:08:37;;;;;;;0.20;0.20;;;;;;;;;;5143462;27;20289;-73
2022/01/10 02:11:03;;;;;;;0.10;0.10;;;;;;;;;;5143415;27;20230;-73
2022/01/10 02:13:30;;;;;;;0.20;0.20;;;;;;;;;;5144269;27;20517;-73
2022/01/10 02:15:59;;;;;;;0.17;0.17;;;;;;;;;;5147260;27;20244;-72
2022/01/10 02:18:26;;;;;;;0.20;0.20;;;;;;;;;;5147454;27;20203;-73
2022/01/10 02:20:54;;;;;;;0.20;0.20;;;;;;;;;;5147424;27;20242;-72
2022/01/10 02:23:21;;;;;;;0.20;0.20;;;;;;;;;;5147191;27;20249;-73
2022/01/10 02:25:48;;;;;;;0.20;0.20;;;;;;;;;;5147330;27;20204;-73
2022/01/10 02:28:14;;;;;;;0.20;0.20;;;;;;;;;;5146921;27;20210;-73
2022/01/10 02:30:41;;;;;;;0.20;0.20;;;;;;;;;;5146843;27;20228;-73
2022/01/10 02:33:07;;;;;;;0.10;0.10;;;;;;;;;;5147178;27;20249;-73
2022/01/10 02:35:39;;;;;;;0.10;0.10;;;;;;;;;;5147030;27;20249;-72
2022/01/10 02:38:06;;;;;;;0.20;0.20;;;;;;;;;;5146974;27;20198;-73
2022/01/10 02:40:34;;;;;;;0.10;0.10;;;;;;;;;;5146742;27;20197;-72
2022/01/10 02:43:01;;;;;;;0.10;0.10;;;;;;;;;;5146528;27;20214;-73
2022/01/10 02:45:27;;;;;;;0.20;0.20;;;;;;;;;;5146873;27;20452;-73
2022/01/10 02:47:54;;;;;;;0.20;0.20;;;;;;;;;;5146571;27;20238;-73
2022/01/10 02:50:21;;;;;;;0.10;0.10;;;;;;;;;;5146582;27;20228;-73
2022/01/10 02:52:47;;;;;;;0.13;0.13;;;;;;;;;;5146854;27;20204;-73
2022/01/10 02:55:15;;;;;;;0.10;0.10;;;;;;;;;;5146654;27;20478;-73
2022/01/10 02:57:41;;;;;;;0.10;0.10;;;;;;;;;;5146402;27;20233;-73
2022/01/10 03:00:12;;;;;;;0.20;0.20;;;;;;;;;;5146705;27;20200;-73
2022/01/10 03:02:38;;;;;;;0.10;0.10;;;;;;;;;;5146212;27;20208;-73
2022/01/10 03:05:05;;;;;;;0.10;0.10;;;;;;;;;;5146473;27;20202;-72
2022/01/10 03:07:32;;;;;;;0.20;0.20;;;;;;;;;;5146197;27;20205;-73
2022/01/10 03:09:59;;;;;;;0.10;0.10;;;;;;;;;;5146072;27;20230;-72
2022/01/10 03:12:28;;;;;;;0.20;0.20;;;;;;;;;;5146334;27;20204;-73
2022/01/10 03:14:54;;;;;;;0.10;0.10;;;;;;;;;;5146116;27;20436;-73
2022/01/10 03:17:20;;;;;;;0.17;0.17;;;;;;;;;;5145928;27;20390;-73
2022/01/10 03:19:47;;;;;;;0.10;0.10;;;;;;;;;;5146274;27;20485;-72
2022/01/10 03:22:15;;;;;;;0.10;0.10;;;;;;;;;;5145870;27;20209;-72
2022/01/10 03:24:41;;;;;;;0.13;0.13;;;;;;;;;;5145956;27;20204;-73
2022/01/10 03:27:07;;;;;;;0.20;0.20;;;;;;;;;;5130263;27;20209;-72
2022/01/10 03:29:35;;;;;;;0.10;0.10;;;;;;;;;;5125063;28;20206;-72
2022/01/10 03:32:02;;;;;;;0.17;0.17;;;;;;;;;;5125264;28;20228;-73
2022/01/10 03:34:28;;;;;;;0.10;0.10;;;;;;;;;;5125285;28;20525;-73
2022/01/10 03:36:54;;;;;;;0.10;0.10;;;;;;;;;;5124861;28;20454;-73
2022/01/10 03:39:21;;;;;;;0.10;0.10;;;;;;;;;;5124761;28;20198;-73
2022/01/10 03:41:47;;;;;;;0.20;0.20;;;;;;;;;;5125222;27;20389;-73
2022/01/10 03:44:13;;;;;;;0.10;0.10;;;;;;;;;;5125156;28;20212;-73
2022/01/10 03:46:41;;;;;;;0.10;0.10;;;;;;;;;;5125093;27;20554;-73
2022/01/10 03:49:07;;;;;;;0.10;0.10;;;;;;;;;;5124754;28;20200;-73
2022/01/10 03:51:33;;;;;;;0.20;0.20;;;;;;;;;;5124892;28;20224;-73
2022/01/10 03:54:00;;;;;;;0.20;0.20;;;;;;;;;;5124698;28;20278;-73
2022/01/10 03:56:28;;;;;;;0.10;0.10;;;;;;;;;;5124652;28;20204;-73
2022/01/10 03:58:54;;;;;;;0.10;0.10;;;;;;;;;;5124938;28;20209;-73
2022/01/10 04:01:20;;;;;;;0.20;0.20;;;;;;;;;;5124943;28;20208;-73
2022/01/10 04:03:48;;;;;;;0.10;0.10;;;;;;;;;;5124476;28;20199;-73
2022/01/10 04:06:14;;;;;;;0.20;0.20;;;;;;;;;;5124792;28;20432;-73
2022/01/10 04:08:40;;;;;;;0.20;0.20;;;;;;;;;;5124821;28;20597;-72
2022/01/10 04:11:07;;;;;;;0.10;0.10;;;;;;;;;;5137547;27;20454;-73
2022/01/10 04:13:33;;;;;;;0.10;0.10;;;;;;;;;;5145196;27;20404;-73
2022/01/10 04:15:59;;;;;;;0.17;0.17;;;;;;;;;;5145124;27;20203;-73
2022/01/10 04:18:25;;;;;;;0.20;0.20;;;;;;;;;;5144978;27;20383;-73
2022/01/10 04:20:53;;;;;;;0.10;0.10;;;;;;;;;;5144790;27;20210;-73
2022/01/10 04:23:20;;;;;;;0.10;0.10;;;;;;;;;;5144677;27;20204;-72
2022/01/10 04:25:46;;;;;;;0.10;0.10;;;;;;;;;;5144669;27;20225;-72
2022/01/10 04:28:12;;;;;;;0.10;0.10;;;;;;;;;;5144917;27;20245;-72
2022/01/10 04:30:39;;;;;;;0.10;0.10;;;;;;;;;;5144662;27;20464;-72
2022/01/10 04:33:05;;;;;;;0.10;0.10;;;;;;;;;;5144619;27;20520;-72
2022/01/10 04:35:31;;;;;;;0.10;0.10;;;;;;;;;;5144407;27;20559;-73
2022/01/10 04:37:59;;;;;;;0.10;0.10;;;;;;;;;;5143997;27;20229;-73
2022/01/10 04:40:25;;;;;;;0.10;0.10;;;;;;;;;;5144645;27;20242;-73
2022/01/10 04:42:52;;;;;;;0.20;0.20;;;;;;;;;;5144712;27;20209;-73
2022/01/10 04:45:19;;;;;;;0.20;0.20;;;;;;;;;;5144742;27;20260;-73
2022/01/10 04:47:45;;;;;;;0.20;0.20;;;;;;;;;;5144678;27;20234;-73
2022/01/10 04:50:35;;;;;;;0.10;0.10;;;;;;;;;;5144189;27;20279;-73
2022/01/10 04:53:03;;;;;;;0.10;0.10;;;;;;;;;;5144640;27;20189;-72
2022/01/10 04:55:29;;;;;;;0.10;0.10;;;;;;;;;;5144481;27;20204;-73
2022/01/10 04:57:55;;;;;;;0.13;0.13;;;;;;;;;;5144141;27;20435;-72
2022/01/10 05:00:22;;;;;;;0.10;0.10;;;;;;;;;;5143654;27;20215;-73
2022/01/10 05:02:49;;;;;;;0.10;0.10;;;;;;;;;;5143677;27;20219;-73
2022/01/10 05:05:15;;;;;;;0.10;0.10;;;;;;;;;;5143605;27;20204;-72
2022/01/10 05:07:41;;;;;;;0.17;0.17;;;;;;;;;;5144294;27;20245;-71
2022/01/10 05:10:09;;;;;;;0.10;0.10;;;;;;;;;;5144062;27;20287;-72
2022/01/10 05:12:36;;;;;;;0.10;0.10;;;;;;;;;;5144309;27;20232;-73
2022/01/10 05:15:02;;;;;;;0.20;0.20;;;;;;;;;;5144065;27;20203;-72
2022/01/10 05:17:28;;;;;;;0.10;0.10;;;;;;;;;;5144022;27;20413;-73
2022/01/10 05:19:54;;;;;;;0.20;0.20;;;;;;;;;;5144270;27;20245;-73
2022/01/10 05:22:20;;;;;;;0.20;0.20;;;;;;;;;;5143874;27;20236;-73
2022/01/10 05:24:46;;;;;;;0.10;0.10;;;;;;;;;;5144286;27;20202;-73
2022/01/10 05:27:14;;;;;;;0.10;0.10;;;;;;;;;;5133170;27;20297;-73
2022/01/10 05:29:40;;;;;;;0.20;0.20;;;;;;;;;;5123640;28;20207;-73
2022/01/10 05:32:07;;;;;;;0.20;0.20;;;;;;;;;;5123330;28;20225;-73
2022/01/10 05:34:33;;;;;;;0.20;0.20;;;;;;;;;;5123511;28;20257;-73
2022/01/10 05:36:59;;;;;;;0.20;0.20;;;;;;;;;;5128071;28;20384;-73
2022/01/10 05:39:26;;;;;;;0.20;0.20;;;;;;;;;;5143829;27;20310;-72
2022/01/10 05:41:52;;;;;;;0.10;0.10;;;;;;;;;;5143898;27;20200;-73
2022/01/10 05:44:19;;;;;;;0.20;0.20;;;;;;;;;;5144045;27;20393;-73
2022/01/10 05:46:47;;;;;;;0.10;0.10;;;;;;;;;;5143591;27;20215;-73
2022/01/10 05:49:14;;;;;;;0.10;0.10;;;;;;;;;;5145243;27;20517;-73
2022/01/10 05:51:40;;;;;;;0.10;0.10;;;;;;;;;;5147779;27;20542;-73
2022/01/10 05:54:07;;;;;;;0.10;0.10;;;;;;;;;;5147444;27;20219;-72
2022/01/10 05:56:33;;;;;;;0.13;0.13;;;;;;;;;;5147843;27;20272;-73
2022/01/10 05:59:00;;;;;;;0.20;0.20;;;;;;;;;;5147756;27;20257;-72
2022/01/10 06:01:27;;;;;;;0.20;0.20;;;;;;;;;;5147787;27;20239;-74
2022/01/10 06:03:53;;;;;;;0.20;0.20;;;;;;;;;;5147722;27;20324;-73
2022/01/10 06:06:20;;;;;;;0.20;0.20;;;;;;;;;;5147287;27;20278;-73
2022/01/10 06:08:46;;;;;;;0.10;0.10;;;;;;;;;;5145591;27;20228;-73
2022/01/10 06:11:12;;;;;;;0.10;0.10;;;;;;;;;;5136194;27;20239;-73
2022/01/10 06:13:38;;;;;;;0.20;0.20;;;;;;;;;;5126937;27;20205;-71
2022/01/10 06:16:05;;;;;;;0.20;0.20;;;;;;;;;;5141093;27;20467;-72
2022/01/10 06:18:33;;;;;;;0.10;0.10;;;;;;;;;;5147356;27;20193;-72
2022/01/10 06:20:59;;;;;;;0.10;0.10;;;;;;;;;;5143316;27;20198;-73
2022/01/10 06:23:25;;;;;;;0.30;0.30;;;;;;;;;;5138057;27;20197;-73
2022/01/10 06:25:51;;;;;;;0.10;0.10;;;;;;;;;;5138533;27;20200;-73
2022/01/10 06:28:18;;;;;;;0.20;0.20;;;;;;;;;;5134698;27;20251;-72
2022/01/10 06:30:44;;;;;;;0.10;0.10;;;;;;;;;;5127943;27;20205;-72
2022/01/10 06:33:10;;;;;;;0.10;0.10;;;;;;;;;;5138291;27;20208;-73
2022/01/10 06:35:38;;;;;;;0.20;0.20;;;;;;;;;;5131006;27;20419;-73
2022/01/10 06:38:04;;;;;;;0.17;0.17;;;;;;;;;;5136876;27;20201;-73
2022/01/10 06:40:31;;;;;;;0.20;0.20;;;;;;;;;;5134628;27;20468;-73
2022/01/10 06:42:57;;;;;;;0.10;0.10;;;;;;;;;;5131057;27;20190;-72
2022/01/10 06:45:24;;;;;;;0.20;0.20;;;;;;;;;;5131038;27;20216;-73
2022/01/10 06:47:50;;;;;;;0.20;0.20;;;;;;;;;;5138149;27;20201;-72
2022/01/10 06:50:16;;;;;;;0.10;0.10;;;;;;;;;;5138774;27;20204;-73
2022/01/10 06:52:44;;;;;;;0.10;0.10;;;;;;;;;;5131882;27;20224;-73
2022/01/10 06:55:10;;;;;;;0.20;0.20;;;;;;;;;;5142843;27;20242;-72
2022/01/10 06:57:36;;;;;;;0.10;0.10;;;;;;;;;;5137580;27;20231;-71
2022/01/10 07:00:05;;;;;;;0.20;0.20;;;;;;;;;;5140841;27;20238;-73
2022/01/10 07:02:31;;;;;;;0.20;0.20;;;;;;;;;;5130779;27;20238;-73
2022/01/10 07:04:57;;;;;;;0.20;0.20;;;;;;;;;;5134381;27;20247;-72
2022/01/10 07:07:23;;;;;;;0.10;0.10;;;;;;;;;;5130607;27;20201;-72
2022/01/10 07:09:51;;;;;;;0.10;0.10;;;;;;;;;;5127829;27;20221;-73
2022/01/10 07:12:17;;;;;;;0.20;0.20;;;;;;;;;;5135252;27;20225;-72
2022/01/10 07:14:43;;;;;;;0.20;0.20;;;;;;;;;;5135272;27;20561;-75
2022/01/10 07:17:10;;;;;;;0.20;0.20;;;;;;;;;;5134180;27;20258;-74
2022/01/10 07:19:36;;;;;;;0.17;0.17;;;;;;;;;;5145631;27;20237;-74
2022/01/10 07:22:03;;;;;;;0.10;0.10;;;;;;;;;;5145218;27;20227;-75
2022/01/10 07:24:29;;;;;;;0.10;0.10;;;;;;;;;;5145859;27;20209;-73
2022/01/10 07:26:57;;;;;;;0.13;0.13;;;;;;;;;;5145111;27;20203;-72
2022/01/10 07:29:23;;;;;;;0.30;0.30;;;;;;;;;;5135675;27;20522;-73
2022/01/10 07:31:49;;;;;;;0.10;0.10;;;;;;;;;;5146051;27;20265;-72
2022/01/10 07:34:16;;;;;;;0.10;0.10;;;;;;;;;;5146044;27;20206;-72
2022/01/10 07:36:42;;;;;;;0.10;0.10;;;;;;;;;;5145628;27;20227;-72
2022/01/10 07:39:10;;;;;;;0.20;0.20;;;;;;;;;;5145696;27;20636;-73
2022/01/10 07:41:36;;;;;;;0.10;0.10;;;;;;;;;;5137409;27;20197;-71
2022/01/10 07:44:04;;;;;;;0.20;0.20;;;;;;;;;;5133308;27;20250;-72
2022/01/10 07:46:30;;;;;;;0.20;0.20;;;;;;;;;;5128560;27;20204;-72
2022/01/10 07:48:57;;;;;;;0.10;0.10;;;;;;;;;;5134781;27;20204;-73
2022/01/10 07:51:24;;;;;;;0.20;0.20;;;;;;;;;;5124386;27;20205;-72
2022/01/10 07:53:50;;;;;;;0.10;0.10;;;;;;;;;;5139104;27;20204;-73
2022/01/10 07:56:16;;;;;;;0.17;0.17;;;;;;;;;;5144854;27;20200;-72
2022/01/10 07:58:43;;;;;;;0.10;0.10;;;;;;;;;;5138762;27;20427;-72
2022/01/10 08:01:10;;;;;;;0.10;0.10;;;;;;;;;;5144379;27;20200;-74
2022/01/10 08:03:37;;;;;;;0.10;0.10;;;;;;;;;;5142257;27;20205;-72
2022/01/10 08:06:03;;;;;;;0.13;0.13;;;;;;;;;;5145270;27;20212;-73
2022/01/10 08:08:29;;;;;;;0.20;0.20;;;;;;;;;;5144816;27;20232;-72
2022/01/10 08:10:55;;;;;;;0.10;0.10;;;;;;;;;;5135767;27;20201;-72
2022/01/10 08:13:23;;;;;;;0.20;0.20;;;;;;;;;;5124364;28;20534;-72
2022/01/10 08:15:49;;;;;;;0.20;0.20;;;;;;;;;;5124585;28;20297;-72
2022/01/10 08:18:17;;;;;;;0.20;0.20;;;;;;;;;;5124459;28;20205;-73
2022/01/10 08:20:43;;;;;;;0.10;0.10;;;;;;;;;;5124641;27;20397;-73
2022/01/10 08:23:10;;;;;;;0.20;0.20;;;;;;;;;;5124844;28;20246;-71
2022/01/10 08:25:36;;;;;;;0.10;0.10;;;;;;;;;;5128128;27;20198;-72
2022/01/10 08:28:02;;;;;;;0.20;0.20;;;;;;;;;;5134251;27;20230;-74
2022/01/10 08:30:29;;;;;;;0.10;0.10;;;;;;;;;;5137995;27;20245;-74
2022/01/10 08:32:55;;;;;;;0.20;0.20;;;;;;;;;;5144587;27;20238;-68
2022/01/10 08:35:23;;;;;;;0.20;0.20;;;;;;;;;;5144555;27;20200;-66
2022/01/10 08:37:49;;;;;;;0.10;0.10;;;;;;;;;;5144531;27;20208;-66
2022/01/10 08:40:15;;;;;;;0.10;0.10;;;;;;;;;;5144551;27;20208;-66
2022/01/10 08:42:42;;;;;;;0.17;0.17;;;;;;;;;;5139499;27;20202;-73
2022/01/10 08:45:09;;;;;;;0.10;0.10;;;;;;;;;;5135711;27;20261;-73
2022/01/10 08:47:35;;;;;;;0.20;0.20;;;;;;;;;;5142542;27;20208;-72
2022/01/10 08:50:02;;;;;;;0.20;0.20;;;;;;;;;;5144704;27;20359;-72
2022/01/10 08:52:29;;;;;;;0.10;0.10;;;;;;;;;;5138488;27;20225;-72
2022/01/10 08:54:55;;;;;;;0.17;0.17;;;;;;;;;;5124782;27;20208;-73
2022/01/10 08:57:22;;;;;;;0.17;0.17;;;;;;;;;;5123766;28;20196;-72
2022/01/10 08:59:48;;;;;;;0.20;0.20;;;;;;;;;;5128306;27;20225;-71
2022/01/10 09:02:15;;;;;;;0.10;0.10;;;;;;;;;;5144265;27;20200;-72
2022/01/10 09:04:41;;;;;;;0.10;0.10;;;;;;;;;;5144216;27;20207;-72
2022/01/10 09:07:08;;;;;;;0.20;0.20;;;;;;;;;;5142818;27;20223;-73
2022/01/10 09:09:37;;;;;;;0.20;0.20;;;;;;;;;;5144326;27;20265;-72
2022/01/10 09:12:03;;;;;;;0.10;0.10;;;;;;;;;;5126888;27;20230;-72
2022/01/10 09:14:30;;;;;;;0.20;0.20;;;;;;;;;;5123755;28;20204;-74
2022/01/10 09:16:56;;;;;;;0.10;0.10;;;;;;;;;;5137957;28;20216;-71
2022/01/10 09:19:22;;;;;;;0.10;0.10;;;;;;;;;;5143154;27;20249;-73
2022/01/10 09:21:49;;;;;;;0.10;0.10;;;;;;;;;;5133700;27;20212;-72
2022/01/10 09:24:15;;;;;;;0.10;0.10;;;;;;;;;;5147370;27;20246;-72
2022/01/10 09:26:43;;;;;;;0.13;0.13;;;;;;;;;;5144642;27;20226;-73
2022/01/10 09:29:09;;;;;;;0.10;0.10;;;;;;;;;;5127835;27;20235;-72
2022/01/10 09:31:35;;;;;;;0.13;0.13;;;;;;;;;;5144581;27;20204;-72
2022/01/10 09:34:02;;;;;;;0.10;0.10;;;;;;;;;;5148457;27;20242;-72
2022/01/10 09:36:29;;;;;;;0.20;0.20;;;;;;;;;;5148382;27;20392;-74
2022/01/10 09:38:57;;;;;;;0.10;0.10;;;;;;;;;;5148364;27;20208;-74
2022/01/10 09:41:23;;;;;;;0.10;0.10;;;;;;;;;;5147901;27;20222;-73
2022/01/10 09:43:52;;;;;;;0.10;0.10;;;;;;;;;;5148286;27;20200;-74
2022/01/10 09:46:19;;;;;;;0.20;0.20;;;;;;;;;;5147775;27;20272;-74
2022/01/10 09:48:45;;;;;;;0.20;0.20;;;;;;;;;;5148103;27;20400;-74
2022/01/10 09:51:12;;;;;;;0.10;0.10;;;;;;;;;;5147695;27;20204;-73
2022/01/10 09:53:38;;;;;;;0.10;0.10;;;;;;;;;;5147435;27;20232;-73
2022/01/10 09:56:04;;;;;;;0.10;0.10;;;;;;;;;;5147932;27;20256;-74
2022/01/10 09:58:31;;;;;;;0.20;0.20;;;;;;;;;;5147806;27;20203;-73
2022/01/10 10:00:59;;;;;;;0.10;0.10;;;;;;;;;;5147495;27;20208;-74
2022/01/10 10:03:25;;;;;;;0.10;0.10;;;;;;;;;;5147269;27;20432;-73
2022/01/10 10:05:53;;;;;;;0.10;0.10;;;;;;;;;;5136731;27;20217;-74
2022/01/10 10:08:20;;;;;;;0.10;0.10;;;;;;;;;;5126684;28;20235;-74
2022/01/10 10:10:46;;;;;;;0.20;0.20;;;;;;;;;;5127062;28;20209;-76
2022/01/10 10:13:14;;;;;;;0.20;0.20;;;;;;;;;;5126747;28;20225;-73
2022/01/10 10:15:41;;;;;;;0.20;0.20;;;;;;;;;;5126901;27;20545;-73
2022/01/10 10:18:11;;;;;;;0.10;0.10;;;;;;;;;;5126543;28;20219;-72
2022/01/10 10:20:37;;;;;;;0.10;0.10;;;;;;;;;;5132028;27;20215;-72
2022/01/10 10:23:04;;;;;;;0.10;0.10;;;;;;;;;;5129166;27;20207;-74
2022/01/10 10:25:33;;;;;;;0.10;0.10;;;;;;;;;;5126654;28;20211;-75
2022/01/10 10:27:59;;;;;;;0.20;0.20;;;;;;;;;;5126728;28;20212;-73
2022/01/10 10:30:27;;;;;;;0.10;0.10;;;;;;;;;;5126853;28;20201;-74
2022/01/10 10:33:10;;;;;;;0.10;0.10;;;;;;;;;;5126484;28;20303;-74
2022/01/10 10:35:38;;;;;;;0.10;0.10;;;;;;;;;;5134114;27;20504;-73
2022/01/10 10:38:04;;;;;;;0.10;0.10;;;;;;;;;;5137516;27;20206;-75
2022/01/10 10:40:30;;;;;;;0.10;0.10;;;;;;;;;;5126350;28;20204;-74
2022/01/10 10:42:57;;;;;;;0.20;0.20;;;;;;;;;;5126525;28;20205;-75
2022/01/10 10:45:25;;;;;;;0.10;0.10;;;;;;;;;;5126443;28;20232;-74
2022/01/10 10:47:51;;;;;;;0.20;0.20;;;;;;;;;;5126308;27;20212;-73
2022/01/10 10:50:17;;;;;;;0.10;0.10;;;;;;;;;;5140563;27;20417;-73
2022/01/10 10:52:45;;;;;;;0.20;0.20;;;;;;;;;;5146833;27;20228;-73
2022/01/10 10:55:12;;;;;;;0.10;0.10;;;;;;;;;;5146503;27;20208;-76
2022/01/10 10:57:39;;;;;;;0.20;0.20;;;;;;;;;;5146812;27;20507;-74
2022/01/10 11:00:06;;;;;;;0.10;0.10;;;;;;;;;;5146465;27;20396;-75
2022/01/10 11:02:32;;;;;;;0.10;0.10;;;;;;;;;;5146312;27;20241;-76
2022/01/10 11:05:02;;;;;;;0.13;0.13;;;;;;;;;;5146482;27;20211;-74
2022/01/10 11:07:31;;;;;;;0.10;0.10;;;;;;;;;;5146545;27;20227;-73
2022/01/10 11:09:59;;;;;;;0.10;0.10;;;;;;;;;;5146248;27;20224;-72
2022/01/10 11:12:25;;;;;;;0.10;0.10;;;;;;;;;;5146397;27;20208;-73
2022/01/10 11:14:52;;;;;;;0.10;0.10;;;;;;;;;;5146126;27;20292;-73
2022/01/10 11:17:20;;;;;;;0.10;0.10;;;;;;;;;;5142993;27;20236;-72
2022/01/10 11:20:06;;;;;;;0.17;0.17;;;;;;;;;;5141546;27;20241;-73
2022/01/10 11:22:33;;;;;;;0.17;0.17;;;;;;;;;;5140377;27;20229;-74
2022/01/10 11:25:02;;;;;;;0.10;0.10;;;;;;;;;;5137254;27;20417;-74
2022/01/10 11:27:32;;;;;;;0.10;0.10;;;;;;;;;;5144516;27;20391;-71
2022/01/10 11:29:59;;;;;;;0.10;0.10;;;;;;;;;;5136604;27;20203;-73
2022/01/10 11:32:46;;;;;;;0.20;0.20;;;;;;;;;;5133768;27;20192;-74
2022/01/10 11:35:12;;;;;;;0.17;0.17;;;;;;;;;;5138853;27;20200;-75
2022/01/10 11:37:39;;;;;;;0.10;0.10;;;;;;;;;;5130898;27;20269;-74
2022/01/10 11:40:07;;;;;;;0.10;0.10;;;;;;;;;;5137961;27;20242;-74
2022/01/10 11:42:43;;;;;;;0.10;0.10;;;;;;;;;;5134805;27;20204;-73
2022/01/10 11:45:09;;;;;;;0.10;0.10;;;;;;;;;;5141744;27;20530;-74
2022/01/10 11:48:06;;;;;;;0.10;0.10;;;;;;;;;;5134061;27;20500;-73
2022/01/10 11:50:32;;;;;;;0.10;0.10;;;;;;;;;;5129623;27;20211;-74
2022/01/10 11:53:01;;;;;;;0.20;0.20;;;;;;;;;;5125103;28;20225;-74
2022/01/10 11:55:32;;;;;;;0.20;0.20;;;;;;;;;;5126350;27;20265;-75
2022/01/10 11:58:02;;;;;;;0.20;0.20;;;;;;;;;;5129486;27;20218;-73
2022/01/10 12:00:34;;;;;;;0.10;0.10;;;;;;;;;;5143355;27;20257;-73
2022/01/10 12:03:00;;;;;;;0.20;0.20;;;;;;;;;;5137240;27;20189;-73
2022/01/10 12:05:27;;;;;;;0.20;0.20;;;;;;;;;;5124657;28;20226;-74
2022/01/10 12:07:53;;;;;;;0.10;0.10;;;;;;;;;;5127281;27;20266;-75
2022/01/10 12:10:20;;;;;;;0.10;0.10;;;;;;;;;;5131193;27;20197;-73
2022/01/10 12:12:50;;;;;;;0.10;0.10;;;;;;;;;;5137703;27;20292;-73
2022/01/10 12:15:17;;;;;;;0.10;0.10;;;;;;;;;;5128968;27;20272;-73
2022/01/10 12:17:43;;;;;;;0.10;0.10;;;;;;;;;;5129739;27;20209;-75
2022/01/10 12:20:11;;;;;;;0.10;0.10;;;;;;;;;;5129735;27;20516;-72
2022/01/10 12:22:38;;;;;;;0.37;0.37;;;;;;;;;;5132822;27;20245;-74
2022/01/10 12:25:06;;;;;;;0.30;0.30;;;;;;;;;;5136398;27;20444;-74
2022/01/10 12:27:34;;;;;;;0.10;0.10;;;;;;;;;;5137816;27;20285;-74
2022/01/10 12:30:03;;;;;;;0.20;0.20;;;;;;;;;;5144362;27;20207;-74
2022/01/10 12:32:32;;;;;;;0.10;0.10;;;;;;;;;;5130865;27;20208;-74
2022/01/10 12:34:59;;;;;;;0.10;0.10;;;;;;;;;;5135446;27;20436;-75
2022/01/10 12:37:25;;;;;;;0.10;0.10;;;;;;;;;;5125621;27;20205;-74
2022/01/10 12:39:51;;;;;;;0.20;0.20;;;;;;;;;;5126201;27;20205;-75
2022/01/10 12:42:18;;;;;;;0.10;0.10;;;;;;;;;;5135265;27;20194;-72
2022/01/10 12:44:45;;;;;;;0.20;0.20;;;;;;;;;;5140052;27;20289;-73
2022/01/10 12:47:13;;;;;;;0.10;0.10;;;;;;;;;;5139993;27;20426;-73
2022/01/10 12:49:44;;;;;;;0.10;0.10;;;;;;;;;;5129423;27;20210;-74
2022/01/10 12:52:10;;;;;;;0.10;0.10;;;;;;;;;;5129127;27;20193;-73
2022/01/10 12:54:37;;;;;;;0.10;0.10;;;;;;;;;;5133481;27;20465;-73
2022/01/10 12:57:03;;;;;;;0.10;0.10;;;;;;;;;;5132911;27;20396;-74
2022/01/10 12:59:30;;;;;;;0.10;0.10;;;;;;;;;;5132634;27;20198;-72
2022/01/10 13:01:59;;;;;;;0.10;0.10;;;;;;;;;;5128570;27;20205;-74
2022/01/10 13:04:28;;;;;;;0.10;0.10;;;;;;;;;;5139239;27;20219;-73
2022/01/10 13:06:54;;;;;;;0.23;0.23;;;;;;;;;;5124483;27;20205;-72
2022/01/10 13:09:21;;;;;;;0.10;0.10;;;;;;;;;;5128852;28;20213;-73
2022/01/10 13:12:01;;;;;;;0.10;0.10;;;;;;;;;;5126936;27;20246;-74
2022/01/10 13:14:28;;;;;;;0.10;0.10;;;;;;;;;;5123215;28;20219;-73
2022/01/10 13:16:57;;;;;;;0.10;0.10;;;;;;;;;;5123029;28;20238;-73
2022/01/10 13:19:27;;;;;;;0.20;0.20;;;;;;;;;;5140607;28;20518;-72
2022/01/10 13:21:56;;;;;;;0.10;0.10;;;;;;;;;;5128370;27;20204;-73
2022/01/10 13:24:23;;;;;;;0.10;0.10;;;;;;;;;;5125092;28;20205;-71
2022/01/10 13:27:07;;;;;;;0.10;0.10;;;;;;;;;;5123543;28;20212;-72
2022/01/10 13:29:41;;;;;;;0.20;0.20;;;;;;;;;;5124045;28;20232;-71
2022/01/10 13:32:14;;;;;;;0.20;0.20;;;;;;;;;;5125486;28;20209;-72
2022/01/10 13:34:41;;;;;;;0.10;0.10;;;;;;;;;;5122926;28;20217;-72
2022/01/10 13:37:09;;;;;;;0.10;0.10;;;;;;;;;;5123316;28;20496;-71
2022/01/10 13:39:35;;;;;;;0.20;0.20;;;;;;;;;;5122949;28;20205;-71
2022/01/10 13:42:04;;;;;;;0.10;0.10;;;;;;;;;;5122812;28;20206;-70
2022/01/10 13:44:30;;;;;;;0.17;0.17;;;;;;;;;;5123364;28;20451;-71
2022/01/10 13:47:00;;;;;;;0.10;0.10;;;;;;;;;;5123343;28;20414;-72
2022/01/10 13:49:26;;;;;;;0.20;0.20;;;;;;;;;;5123213;28;20203;-72
2022/01/10 13:52:07;;;;;;;0.17;0.17;;;;;;;;;;5122883;28;20240;-72
2022/01/10 13:54:34;;;;;;;0.10;0.10;;;;;;;;;;5122830;28;20216;-71
2022/01/10 13:57:14;;;;;;;0.10;0.10;;;;;;;;;;5122849;28;20226;-71
2022/01/10 13:59:40;;;;;;;0.20;0.20;;;;;;;;;;5131283;28;20201;-71
2022/01/10 14:02:06;;;;;;;0.10;0.10;;;;;;;;;;5129086;27;20245;-71
2022/01/10 14:04:34;;;;;;;0.40;0.40;;;;;;;;;;5122754;28;20276;-71
2022/01/10 14:07:01;;;;;;;0.20;0.20;;;;;;;;;;5122765;28;20202;-72
2022/01/10 14:09:29;;;;;;;0.10;0.10;;;;;;;;;;5123073;28;20267;-72
2022/01/10 14:11:56;;;;;;;0.10;0.10;;;;;;;;;;5144746;27;20201;-72
2022/01/10 14:14:27;;;;;;;2.23;2.17;;;;;;;;;;5147469;27;20231;-73
2022/01/10 14:16:55;;;;;;;0.10;0.10;;;;;;;;;;5141968;27;20213;-71
2022/01/10 14:19:21;;;;;;;0.10;0.10;;;;;;;;;;5132584;27;20205;-72
2022/01/10 14:21:48;;;;;;;0.10;0.10;;;;;;;;;;5129901;27;20593;-71
2022/01/10 14:24:17;;;;;;;0.20;0.20;;;;;;;;;;5147309;27;20482;-71
2022/01/10 14:26:44;;;;;;;0.20;0.20;;;;;;;;;;5147031;27;20204;-71
2022/01/10 14:29:11;;;;;;;0.10;0.10;;;;;;;;;;5147008;27;20201;-72
2022/01/10 14:31:38;;;;;;;0.10;0.10;;;;;;;;;;5147445;27;20527;-72
2022/01/10 14:34:05;;;;;;;0.10;0.10;;;;;;;;;;5146991;27;20227;-72
2022/01/10 14:36:32;;;;;;;0.20;0.20;;;;;;;;;;5147260;27;20208;-71
2022/01/10 14:38:58;;;;;;;0.17;0.17;;;;;;;;;;5146946;27;20246;-71
2022/01/10 14:41:26;;;;;;;2.10;1.90;;;;;;;;;;5146680;27;20244;-71
2022/01/10 14:43:53;;;;;;;0.10;0.10;;;;;;;;;;5146734;27;20199;-71
2022/01/10 14:46:20;;;;;;;0.10;0.10;;;;;;;;;;5146634;27;20230;-71
2022/01/10 14:48:47;;;;;;;0.10;0.10;;;;;;;;;;5130190;27;20201;-72